Time;durP1;ratioP1;P1;durP2;ratioP2;P2;SDS_P1;SDS_P2;PMS_P1;PMS_P2;Temp;Humidity;BMP_temperature;BMP_pressure;BME280_temperature;BME280_humidity;BME280_pressure;Samples;Min_cycle;Max_cycle;Signal;HPM_P1;HPM_P2
2023/02/08 00:00:52;;;;;;;;;;;;;;;-2.68;61.99;100078.59;5047080;28;19936;-64
2023/02/08 00:03:20;;;;;;;;;;;;;;;-2.93;62.27;100072.50;5045669;28;19940;-63
2023/02/08 00:05:48;;;;;;;;;;;;;;;-2.89;62.34;100079.16;5052106;28;19931;-65
2023/02/08 00:08:17;;;;;;;;;;;;;;;-2.88;62.52;100072.84;5051420;28;19965;-63
2023/02/08 00:10:46;;;;;;;;;;;;;;;-3.04;62.69;100065.72;5038020;28;19936;-64
2023/02/08 00:13:14;;;;;;;;;;;;;;;-3.28;63.13;100060.50;5052375;28;19929;-65
2023/02/08 00:15:42;;;;;;;;;;;;;;;-3.20;63.37;100061.28;5057166;28;19980;-65
2023/02/08 00:18:10;;;;;;;;;;;;;;;-2.98;63.16;100058.94;5029467;28;19929;-65
2023/02/08 00:20:38;;;;;;;;;;;;;;;-3.23;62.85;100066.97;5038950;28;20441;-66
2023/02/08 00:23:07;;;;;;;;;;;;;;;-3.11;62.82;100064.75;5052146;28;19936;-65
2023/02/08 00:25:35;;;;;;;;;;;;;;;-3.03;62.58;100066.59;5044420;28;19935;-64
2023/02/08 00:28:06;;;;;;;;;;;;;;;-3.17;62.30;100054.81;5033313;28;19983;-64
2023/02/08 00:30:36;;;;;;;;;;;;;;;-3.11;62.30;100061.28;5032704;28;19968;-64
2023/02/08 00:33:04;;;;;;;;;;;;;;;-3.11;61.65;100063.94;5030323;28;20404;-64
2023/02/08 00:35:33;;;;;;;;;;;;;;;-2.99;61.14;100063.38;5035097;28;19932;-64
2023/02/08 00:38:02;;;;;;;;;;;;;;;-3.01;61.30;100060.09;5046914;28;20128;-65
2023/02/08 00:43:23;;;;;;;;;;;;;;;-2.94;60.08;100061.06;5053013;28;19956;-65
2023/02/08 00:45:53;;;;;;;;;;;;;;;-2.81;59.61;100063.19;5047165;28;20415;-64
2023/02/08 00:48:21;;;;;;;;;;;;;;;-2.77;58.79;100061.84;5031688;28;19929;-64
2023/02/08 00:51:04;;;;;;;;;;;;;;;-2.84;59.06;100060.84;5033008;28;19924;-65
2023/02/08 00:53:36;;;;;;;;;;;;;;;-2.82;58.83;100066.84;5030138;28;19925;-65
2023/02/08 00:56:05;;;;;;;;;;;;;;;-2.84;59.55;100066.16;5046395;28;19929;-65
2023/02/08 00:58:35;;;;;;;;;;;;;;;-2.88;59.25;100069.34;5021900;28;19929;-64
2023/02/08 01:01:08;;;;;;;;;;;;;;;-2.92;59.45;100069.69;5031950;28;19925;-65
2023/02/08 01:03:37;;;;;;;;;;;;;;;-2.85;58.68;100079.66;5051506;28;19971;-65
2023/02/08 01:06:06;;;;;;;;;;;;;;;-2.74;59.14;100082.75;5048149;28;19925;-65
2023/02/08 01:08:35;;;;;;;;;;;;;;;-2.62;58.76;100080.56;5031396;28;19929;-64
2023/02/08 01:11:04;;;;;;;;;;;;;;;-2.65;58.66;100076.41;5029002;28;20027;-64
2023/02/08 01:13:37;;;;;;;;;;;;;;;-2.71;59.47;100077.13;5033446;28;19924;-65
2023/02/08 01:16:11;;;;;;;;;;;;;;;-2.80;59.82;100083.47;5038876;28;19956;-65
2023/02/08 01:18:39;;;;;;;;;;;;;;;-2.81;59.96;100081.81;5051739;28;19928;-65
2023/02/08 01:21:08;;;;;;;;;;;;;;;-2.77;59.76;100071.63;5034008;28;19925;-65
2023/02/08 01:26:29;;;;;;;;;;;;;;;-3.09;59.47;100077.88;5036258;28;19925;-62
2023/02/08 01:28:58;;;;;;;;;;;;;;;-3.16;60.04;100078.56;5032507;28;19925;-63
2023/02/08 01:31:32;;;;;;;;;;;;;;;-3.16;60.64;100073.25;5032782;28;19925;-64
2023/02/08 01:34:02;;;;;;;;;;;;;;;-3.09;60.60;100076.06;5025092;28;19971;-63
2023/02/08 01:36:30;;;;;;;;;;;;;;;-3.22;61.01;100073.94;5032641;28;19925;-64
2023/02/08 01:38:58;;;;;;;;;;;;;;;-3.19;60.56;100073.59;5048886;28;19925;-65
2023/02/08 01:41:29;;;;;;;;;;;;;;;-3.16;60.60;100067.94;5028651;28;19928;-63
2023/02/08 01:44:05;;;;;;;;;;;;;;;-3.39;61.68;100064.34;5051449;28;19924;-65
2023/02/08 01:46:36;;;;;;;;;;;;;;;-3.27;61.88;100065.63;5024491;28;19932;-66
2023/02/08 01:49:06;;;;;;;;;;;;;;;-3.16;60.63;100067.09;5049191;28;20034;-65
2023/02/08 01:51:35;;;;;;;;;;;;;;;-3.37;60.81;100064.16;5043943;28;20370;-65
2023/02/08 01:54:05;;;;;;;;;;;;;;;-3.23;59.68;100064.28;5030625;28;20385;-65
2023/02/08 01:56:33;;;;;;;;;;;;;;;-3.25;59.50;100058.34;5023685;28;19932;-65
2023/02/08 01:59:04;;;;;;;;;;;;;;;-3.39;59.95;100064.34;5009773;28;19933;-64
2023/02/08 02:01:31;;;;;;;;;;;;;;;-3.35;59.92;100065.66;5028820;28;19928;-64
2023/02/08 02:04:05;;;;;;;;;;;;;;;-3.25;59.90;100058.34;5035036;28;20405;-65
2023/02/08 02:06:33;;;;;;;;;;;;;;;-3.48;59.17;100062.69;5025706;28;19956;-65
2023/02/08 02:09:03;;;;;;;;;;;;;;;-3.32;59.62;100060.00;5018449;28;19933;-64
2023/02/08 02:11:32;;;;;;;;;;;;;;;-3.39;60.05;100056.34;5009721;28;19929;-65
2023/02/08 02:14:02;;;;;;;;;;;;;;;-3.59;59.72;100060.38;5012760;28;20389;-65
2023/02/08 02:16:30;;;;;;;;;;;;;;;-3.39;59.99;100064.34;5025907;28;19952;-64
2023/02/08 02:19:04;;;;;;;;;;;;;;;-3.67;60.41;100053.25;5010625;28;20317;-65
2023/02/08 02:21:38;;;;;;;;;;;;;;;-3.60;60.38;100050.75;5015100;28;20318;-65
2023/02/08 02:24:12;;;;;;;;;;;;;;;-3.67;60.89;100050.59;5026183;28;19971;-65
2023/02/08 02:26:44;;;;;;;;;;;;;;;-3.99;61.18;100054.06;5027660;28;20405;-65
2023/02/08 02:29:42;;;;;;;;;;;;;;;-3.79;61.62;100066.00;5021242;28;19983;-65
2023/02/08 02:32:14;;;;;;;;;;;;;;;-3.72;60.88;100053.72;4933491;28;19930;-65
2023/02/08 02:34:45;;;;;;;;;;;;;;;-3.66;60.51;100056.72;5006508;28;19932;-65
2023/02/08 02:37:17;;;;;;;;;;;;;;;-3.74;60.65;100052.22;5005768;28;20394;-65
2023/02/08 02:39:49;;;;;;;;;;;;;;;-3.70;61.12;100058.88;5031543;28;20019;-65
2023/02/08 02:45:06;;;;;;;;;;;;;;;-3.74;60.82;100047.75;5019511;28;19925;-65
2023/02/08 02:47:42;;;;;;;;;;;;;;;-3.55;59.79;100045.75;5015531;28;19925;-65
2023/02/08 02:50:36;;;;;;;;;;;;;;;-3.70;60.34;100054.38;5025400;28;20019;-65
2023/02/08 02:53:05;;;;;;;;;;;;;;;-3.65;60.48;100055.72;5015217;28;20290;-64
2023/02/08 02:55:35;;;;;;;;;;;;;;;-3.69;60.43;100061.34;5033838;28;20394;-64
2023/02/08 02:58:05;;;;;;;;;;;;;;;-3.75;60.70;100051.41;5049970;28;19924;-64
2023/02/08 03:00:33;;;;;;;;;;;;;;;-3.73;60.54;100060.06;5043708;28;19931;-65
2023/02/08 03:03:02;;;;;;;;;;;;;;;-3.77;60.50;100058.72;5038371;28;19932;-65
2023/02/08 03:05:33;;;;;;;;;;;;;;;-3.75;60.69;100056.72;5044014;28;19976;-64
2023/02/08 03:08:03;;;;;;;;;;;;;;;-3.67;60.88;100053.25;5047592;28;20293;-65
2023/02/08 03:10:43;;;;;;;;;;;;;;;-3.87;61.14;100052.72;5027404;28;19924;-65
2023/02/08 03:13:13;;;;;;;;;;;;;;;-3.92;60.97;100052.41;5044206;28;19932;-64
2023/02/08 03:15:44;;;;;;;;;;;;;;;-4.13;61.57;100047.56;5048596;28;20286;-64
2023/02/08 03:18:16;;;;;;;;;;;;;;;-4.15;61.86;100048.75;5049905;28;19928;-64
2023/02/08 03:20:47;;;;;;;;;;;;;;;-4.12;61.76;100043.09;5040430;28;20027;-63
2023/02/08 03:23:18;;;;;;;;;;;;;;;-4.28;62.33;100049.19;5048947;28;20289;-65
2023/02/08 03:25:48;;;;;;;;;;;;;;;-4.08;61.84;100052.41;5050278;28;19925;-65
2023/02/08 03:28:18;;;;;;;;;;;;;;;-3.98;61.50;100045.09;5051473;28;19937;-64
2023/02/08 03:33:42;;;;;;;;;;;;;;;-4.04;61.87;100046.59;5045195;28;20366;-65
2023/02/08 03:36:11;;;;;;;;;;;;;;;-4.09;61.52;100046.25;5053605;28;19932;-64
2023/02/08 03:38:40;;;;;;;;;;;;;;;-3.94;60.74;100041.13;5045081;28;19929;-65
2023/02/08 03:41:13;;;;;;;;;;;;;;;-4.06;61.28;100047.75;5034190;28;19931;-65
2023/02/08 03:43:43;;;;;;;;;;;;;;;-4.20;61.84;100045.75;5051944;28;20550;-64
2023/02/08 03:46:11;;;;;;;;;;;;;;;-4.12;62.12;100045.75;5047530;28;20040;-65
2023/02/08 03:48:40;;;;;;;;;;;;;;;-4.20;62.06;100043.91;5047637;28;19925;-65
2023/02/08 03:51:10;;;;;;;;;;;;;;;-4.15;61.83;100041.59;5042743;28;20424;-65
2023/02/08 03:56:31;;;;;;;;;;;;;;;-4.06;61.36;100045.09;5049581;28;19925;-64
2023/02/08 03:59:00;;;;;;;;;;;;;;;-4.10;61.49;100044.59;5048604;28;19925;-65
2023/02/08 04:01:29;;;;;;;;;;;;;;;-4.06;61.22;100042.44;5053169;28;19925;-65
2023/02/08 04:03:57;;;;;;;;;;;;;;;-4.13;61.59;100041.44;5052121;28;19948;-64
2023/02/08 04:06:29;;;;;;;;;;;;;;;-4.24;62.37;100040.75;5050903;28;19925;-65
2023/02/08 04:08:57;;;;;;;;;;;;;;;-4.28;62.98;100043.91;5034546;28;19924;-65
2023/02/08 04:11:25;;;;;;;;;;;;;;;-4.43;63.24;100045.53;5049641;28;19929;-64
2023/02/08 04:13:53;;;;;;;;;;;;;;;-4.43;63.80;100041.03;5048918;28;19929;-65
2023/02/08 04:16:21;;;;;;;;;;;;;;;-4.31;62.78;100041.59;5059451;28;19933;-65
2023/02/08 04:18:49;;;;;;;;;;;;;;;-4.17;62.94;100045.41;5031209;28;19932;-64
2023/02/08 04:21:43;;;;;;;;;;;;;;;-4.31;63.25;100038.94;5052940;28;20342;-64
2023/02/08 04:24:12;;;;;;;;;;;;;;;-4.48;63.65;100048.66;5051802;28;19929;-63
2023/02/08 04:26:40;;;;;;;;;;;;;;;-4.43;63.78;100046.34;5033727;28;19933;-65
2023/02/08 04:29:08;;;;;;;;;;;;;;;-4.46;63.64;100037.91;5044263;28;19925;-65
2023/02/08 04:31:36;;;;;;;;;;;;;;;-4.52;64.21;100042.88;5051881;28;20384;-65
2023/02/08 04:34:04;;;;;;;;;;;;;;;-4.53;63.63;100040.34;5052713;28;20424;-65
2023/02/08 04:36:32;;;;;;;;;;;;;;;-4.49;63.64;100039.88;5054901;28;19928;-64
2023/02/08 04:39:01;;;;;;;;;;;;;;;-4.40;63.57;100045.22;5053208;28;19929;-65
2023/02/08 04:41:29;;;;;;;;;;;;;;;-4.72;63.96;100051.25;5055312;28;19983;-63
2023/02/08 04:43:57;;;;;;;;;;;;;;;-4.62;64.10;100044.00;5044190;28;19925;-65
2023/02/08 04:46:25;;;;;;;;;;;;;;;-4.59;63.60;100041.00;5047870;28;19948;-65
2023/02/08 04:48:54;;;;;;;;;;;;;;;-4.72;63.78;100038.00;5052333;28;20413;-65
2023/02/08 04:51:25;;;;;;;;;;;;;;;-4.70;64.25;100046.59;5049046;28;19933;-65
2023/02/08 04:54:18;;;;;;;;;;;;;;;-4.68;63.86;100047.28;5049842;28;19925;-65
2023/02/08 04:56:47;;;;;;;;;;;;;;;-4.65;64.08;100053.09;5049185;28;19948;-64
2023/02/08 04:59:15;;;;;;;;;;;;;;;-4.60;63.69;100048.13;5048101;28;19924;-65
2023/02/08 05:01:45;;;;;;;;;;;;;;;-4.59;63.95;100044.47;5044176;28;20457;-65
2023/02/08 05:04:13;;;;;;;;;;;;;;;-4.50;63.90;100050.66;5046845;28;19932;-64
2023/02/08 05:06:41;;;;;;;;;;;;;;;-4.51;63.82;100043.69;5051098;28;19948;-64
2023/02/08 05:09:09;;;;;;;;;;;;;;;-4.57;64.14;100042.50;5051689;28;20397;-65
2023/02/08 05:11:37;;;;;;;;;;;;;;;-4.65;63.52;100049.59;5044001;28;19960;-65
2023/02/08 05:14:07;;;;;;;;;;;;;;;-4.72;64.30;100048.59;5046553;28;19929;-65
2023/02/08 05:16:34;;;;;;;;;;;;;;;-4.66;64.23;100051.44;5039658;28;20155;-63
2023/02/08 05:19:05;;;;;;;;;;;;;;;-4.67;63.45;100038.34;5051144;28;19928;-64
2023/02/08 05:21:35;;;;;;;;;;;;;;;-4.77;64.27;100044.59;5048867;28;19929;-63
2023/02/08 05:24:04;;;;;;;;;;;;;;;-4.90;64.87;100038.06;5030421;28;19925;-64
2023/02/08 05:26:32;;;;;;;;;;;;;;;-4.74;64.18;100043.44;5051335;28;19929;-64
2023/02/08 05:29:00;;;;;;;;;;;;;;;-4.79;64.99;100046.59;5055099;28;19978;-63
2023/02/08 05:31:35;;;;;;;;;;;;;;;-4.70;63.98;100049.25;5051377;28;19978;-64
2023/02/08 05:34:03;;;;;;;;;;;;;;;-4.82;64.92;100041.59;5027125;28;20309;-63
2023/02/08 05:36:31;;;;;;;;;;;;;;;-5.07;65.06;100037.16;5048058;28;19925;-64
2023/02/08 05:38:59;;;;;;;;;;;;;;;-4.96;65.22;100039.53;5045407;28;19971;-64
2023/02/08 05:41:30;;;;;;;;;;;;;;;-4.81;64.82;100043.25;5052267;28;19931;-62
2023/02/08 05:43:59;;;;;;;;;;;;;;;-4.82;64.94;100038.94;5047564;28;19987;-64
2023/02/08 05:46:29;;;;;;;;;;;;;;;-4.77;63.89;100047.25;5051226;28;19950;-64
2023/02/08 05:49:25;;;;;;;;;;;;;;;-4.74;63.69;100043.44;5049633;28;20369;-63
2023/02/08 05:51:54;;;;;;;;;;;;;;;-4.81;64.56;100048.56;5046320;28;19925;-62
2023/02/08 05:54:22;;;;;;;;;;;;;;;-4.77;64.46;100047.25;5046497;28;20372;-64
2023/02/08 05:56:51;;;;;;;;;;;;;;;-4.99;65.20;100053.13;5049376;28;20312;-64
2023/02/08 05:59:18;;;;;;;;;;;;;;;-4.96;65.04;100051.97;5050276;28;19925;-64
2023/02/08 06:01:48;;;;;;;;;;;;;;;-5.18;65.99;100050.69;5030250;28;19925;-64
2023/02/08 06:04:16;;;;;;;;;;;;;;;-5.01;65.16;100049.78;5046911;28;20392;-64
2023/02/08 06:06:47;;;;;;;;;;;;;;;-5.03;65.11;100055.25;5049195;28;19925;-64
2023/02/08 06:09:15;;;;;;;;;;;;;;;-5.22;65.56;100054.66;5049844;28;19987;-65
2023/02/08 06:11:43;;;;;;;;;;;;;;;-5.12;65.68;100050.06;5050100;28;20341;-64
2023/02/08 06:14:12;;;;;;;;;;;;;;;-4.93;65.91;100046.34;5047382;28;20050;-64
2023/02/08 06:16:42;;;;;;;;;;;;;;;-5.04;66.17;100056.25;5049898;28;19944;-65
2023/02/08 06:19:12;;;;;;;;;;;;;;;-5.08;66.10;100062.84;5051281;28;19925;-65
2023/02/08 06:21:41;;;;;;;;;;;;;;;-5.01;65.99;100057.75;5046809;28;19925;-64
2023/02/08 06:24:10;;;;;;;;;;;;;;;-4.92;65.51;100061.28;5045327;28;19929;-65
2023/02/08 06:27:04;;;;;;;;;;;;;;;-5.04;65.29;100063.38;5051341;28;20025;-65
2023/02/08 06:29:33;;;;;;;;;;;;;;;-4.91;65.34;100074.34;5042227;28;19931;-63
2023/02/08 06:32:01;;;;;;;;;;;;;;;-4.81;64.79;100074.25;5052974;28;20281;-65
2023/02/08 06:34:31;;;;;;;;;;;;;;;-4.89;65.08;100071.56;5030494;28;19928;-62
2023/02/08 06:37:01;;;;;;;;;;;;;;;-4.89;65.66;100077.69;5048929;28;20014;-64
2023/02/08 06:39:31;;;;;;;;;;;;;;;-5.01;65.88;100074.50;5049016;28;19964;-63
2023/02/08 06:42:00;;;;;;;;;;;;;;;-5.11;65.78;100071.13;5049765;28;19925;-64
2023/02/08 06:44:28;;;;;;;;;;;;;;;-4.98;65.58;100073.34;5050169;28;19931;-66
2023/02/08 06:46:55;;;;;;;;;;;;;;;-5.11;65.82;100071.13;5026905;28;19933;-64
2023/02/08 06:49:24;;;;;;;;;;;;;;;-5.14;65.96;100067.97;5031311;28;19925;-65
2023/02/08 06:51:53;;;;;;;;;;;;;;;-5.11;65.89;100073.78;5047408;28;20497;-65
2023/02/08 06:54:21;;;;;;;;;;;;;;;-4.70;64.89;100066.00;5049765;28;19925;-58
2023/02/08 06:56:49;;;;;;;;;;;;;;;-4.80;65.28;100065.28;5048671;28;19929;-58
2023/02/08 06:59:21;;;;;;;;;;;;;;;-4.80;64.90;100068.78;5048246;28;19983;-58
2023/02/08 07:01:51;;;;;;;;;;;;;;;-4.90;65.02;100065.44;5045532;28;20299;-59
2023/02/08 07:04:19;;;;;;;;;;;;;;;-4.80;64.95;100068.78;5048645;28;19933;-59
2023/02/08 07:06:47;;;;;;;;;;;;;;;-5.00;65.08;100075.31;5048833;28;20305;-59
2023/02/08 07:09:17;;;;;;;;;;;;;;;-4.82;64.71;100073.41;5049795;28;19940;-58
2023/02/08 07:11:45;;;;;;;;;;;;;;;-4.78;64.89;100066.81;5047403;28;19948;-58
2023/02/08 07:14:13;;;;;;;;;;;;;;;-4.50;64.02;100071.88;5033341;28;20403;-58
2023/02/08 07:16:41;;;;;;;;;;;;;;;-4.52;64.10;100076.53;5052573;28;19925;-58
2023/02/08 07:19:09;;;;;;;;;;;;;;;-4.55;64.16;100066.22;5041028;28;19932;-58
2023/02/08 07:21:37;;;;;;;;;;;;;;;-4.55;64.00;100074.19;5048734;28;20275;-58
2023/02/08 07:24:32;;;;;;;;;;;;;;;-4.62;64.58;100074.00;5052948;28;19968;-58
2023/02/08 07:26:59;;;;;;;;;;;;;;;-4.35;63.94;100072.91;5051741;28;19921;-58
2023/02/08 07:29:28;;;;;;;;;;;;;;;-4.36;64.74;100076.56;5053790;28;19925;-59
2023/02/08 07:31:57;;;;;;;;;;;;;;;-4.15;63.91;100080.59;5043361;28;19939;-58
2023/02/08 07:34:25;;;;;;;;;;;;;;;-4.12;63.49;100085.56;5044793;28;19924;-58
2023/02/08 07:36:53;;;;;;;;;;;;;;;-4.09;63.60;100074.63;5033024;28;19929;-58
2023/02/08 07:39:20;;;;;;;;;;;;;;;-4.02;64.05;100073.78;5049049;28;19925;-58
2023/02/08 07:41:50;;;;;;;;;;;;;;;-4.02;63.68;100080.94;5043215;28;20222;-58
2023/02/08 07:44:18;;;;;;;;;;;;;;;-3.94;62.76;100080.97;5044948;28;20397;-58
2023/02/08 07:46:46;;;;;;;;;;;;;;;-4.05;63.04;100078.59;5050304;28;19932;-58
2023/02/08 07:49:14;;;;;;;;;;;;;;;-4.06;63.52;100082.25;5051253;28;20017;-59
2023/02/08 07:51:42;;;;;;;;;;;;;;;-3.88;63.09;100082.94;5046686;28;19933;-59
2023/02/08 07:54:12;;;;;;;;;;;;;;;-3.69;62.59;100082.59;5047448;28;19931;-59
2023/02/08 07:56:41;;;;;;;;;;;;;;;-3.82;62.92;100081.47;5044208;28;19970;-59
2023/02/08 07:59:34;;;;;;;;;;;;;;;-3.82;62.95;100081.47;5047252;28;20022;-59
2023/02/08 08:02:04;;;;;;;;;;;;;;;-3.77;63.20;100073.81;5025199;28;19933;-58
2023/02/08 08:04:57;;;;;;;;;;;;;;;-3.66;62.08;100081.47;5024492;28;19932;-58
2023/02/08 08:07:26;;;;;;;;;;;;;;;-3.80;62.35;100071.50;5042399;28;21436;-58
2023/02/08 08:09:54;;;;;;;;;;;;;;;-3.74;62.79;100073.47;5047557;28;19932;-58
2023/02/08 08:12:25;;;;;;;;;;;;;;;-3.71;62.66;100071.31;5041562;28;19933;-58
2023/02/08 08:14:53;;;;;;;;;;;;;;;-3.69;62.76;100073.81;5040526;28;20390;-58
2023/02/08 08:17:22;;;;;;;;;;;;;;;-3.37;62.02;100080.94;5044238;28;19933;-59
2023/02/08 08:20:14;;;;;;;;;;;;;;;-3.46;62.06;100079.31;5045892;28;19932;-59
2023/02/08 08:22:45;;;;;;;;;;;;;;;-3.30;62.01;100073.09;5038805;28;20028;-58
2023/02/08 08:25:13;;;;;;;;;;;;;;;-3.21;61.52;100069.44;5038723;28;19925;-59
2023/02/08 08:27:41;;;;;;;;;;;;;;;-3.11;61.16;100071.91;5043297;28;19971;-58
2023/02/08 08:30:11;;;;;;;;;;;;;;;-3.05;60.71;100065.91;5056956;28;20397;-59
2023/02/08 08:32:41;;;;;;;;;;;;;;;-3.07;60.41;100062.59;5043501;28;19939;-58
2023/02/08 08:35:09;;;;;;;;;;;;;;;-3.02;60.65;100071.72;5024922;28;20382;-58
2023/02/08 08:40:36;;;;;;;;;;;;;;;-2.77;59.95;100061.84;5046214;28;19924;-59
2023/02/08 08:43:04;;;;;;;;;;;;;;;-2.88;59.38;100066.69;5047722;28;19933;-59
2023/02/08 08:45:32;;;;;;;;;;;;;;;-2.81;59.84;100065.84;5031070;28;19932;-59
2023/02/08 08:48:01;;;;;;;;;;;;;;;-2.65;59.78;100065.78;5034892;28;19940;-58
2023/02/08 08:50:30;;;;;;;;;;;;;;;-2.63;59.42;100063.75;5052095;28;20374;-59
2023/02/08 08:52:58;;;;;;;;;;;;;;;-2.57;59.15;100062.22;5046477;28;19924;-63
2023/02/08 08:55:28;;;;;;;;;;;;;;;-2.56;58.11;100057.75;5050491;28;19929;-58
2023/02/08 08:57:56;;;;;;;;;;;;;;;-2.48;58.53;100053.22;5046204;28;20297;-59
2023/02/08 09:00:27;;;;;;;;;;;;;;;-2.21;58.06;100041.25;5039974;28;19925;-58
2023/02/08 09:02:56;;;;;;;;;;;;;;;-2.14;57.67;100046.69;5047773;28;19968;-58
2023/02/08 09:08:42;;;;;;;;;;;;;;;-1.81;56.94;100031.31;5043100;28;19954;-58
2023/02/08 09:11:11;;;;;;;;;;;;;;;-1.68;56.61;100038.69;5049958;28;19963;-59
2023/02/08 09:13:39;;;;;;;;;;;;;;;-1.64;56.68;100046.16;5059580;28;19933;-59
2023/02/08 09:16:08;;;;;;;;;;;;;;;-1.47;55.49;100038.81;5047848;28;19986;-58
2023/02/08 09:18:36;;;;;;;;;;;;;;;-1.45;55.83;100043.97;5051690;28;19925;-59
2023/02/08 09:21:09;;;;;;;;;;;;;;;-1.29;55.32;100040.31;5058965;28;19931;-58
2023/02/08 09:26:29;;;;;;;;;;;;;;;-1.14;54.37;100052.66;5045720;28;20000;-58
2023/02/08 09:28:58;;;;;;;;;;;;;;;-1.08;54.14;100051.09;5054653;28;19924;-58
2023/02/08 09:31:26;;;;;;;;;;;;;;;-0.86;53.78;100052.00;5026107;28;19932;-57
2023/02/08 09:34:18;;;;;;;;;;;;;;;-0.81;54.26;100053.09;5041795;28;19925;-59
2023/02/08 09:36:48;;;;;;;;;;;;;;;-0.74;53.93;100052.38;5027836;28;19931;-58
2023/02/08 09:39:17;;;;;;;;;;;;;;;-0.58;53.65;100054.84;5046915;28;19936;-58
2023/02/08 09:42:04;;;;;;;;;;;;;;;-0.56;52.96;100053.63;5032458;28;20014;-58
2023/02/08 09:44:33;;;;;;;;;;;;;;;-0.45;52.60;100051.50;5023745;28;20079;-58
2023/02/08 09:47:01;;;;;;;;;;;;;;;-0.36;51.75;100053.06;5046823;28;19925;-58
2023/02/08 09:49:31;;;;;;;;;;;;;;;-0.51;51.64;100052.25;5048877;28;19978;-59
2023/02/08 09:52:01;;;;;;;;;;;;;;;-0.54;51.45;100051.59;5043672;28;19966;-58
2023/02/08 09:54:30;;;;;;;;;;;;;;;-0.52;51.72;100059.44;5020248;28;19936;-59
2023/02/08 09:57:00;;;;;;;;;;;;;;;-0.30;51.96;100054.97;5043874;28;20389;-58
2023/02/08 09:59:29;;;;;;;;;;;;;;;-0.20;51.01;100042.13;5044634;28;19935;-57
2023/02/08 10:02:00;;;;;;;;;;;;;;;-0.08;51.25;100034.44;5050116;28;19933;-57
2023/02/08 10:04:30;;;;;;;;;;;;;;;0.05;50.94;100039.09;5050738;28;19929;-58
2023/02/08 10:06:59;;;;;;;;;;;;;;;0.13;49.89;100036.28;5030180;28;19932;-57
2023/02/08 10:09:30;;;;;;;;;;;;;;;0.22;49.57;100030.63;5049498;28;20329;-58
2023/02/08 10:12:24;;;;;;;;;;;;;;;0.24;49.27;100033.09;5053711;28;20286;-58
2023/02/08 10:14:56;;;;;;;;;;;;;;;0.42;48.93;100030.78;5049719;28;19932;-67
2023/02/08 10:17:49;;;;;;;;;;;;;;;0.37;48.74;100035.88;5049798;28;19933;-62
2023/02/08 10:20:19;;;;;;;;;;;;;;;0.46;48.30;100026.69;5060448;28;19928;-59
2023/02/08 10:22:50;;;;;;;;;;;;;;;0.61;48.75;100033.81;5033785;28;20373;-58
2023/02/08 10:25:22;;;;;;;;;;;;;;;0.65;48.37;100024.38;5047957;28;19932;-58
2023/02/08 10:27:53;;;;;;;;;;;;;;;0.94;48.21;100024.16;5029984;28;19925;-57
2023/02/08 10:30:32;;;;;;;;;;;;;;;0.99;47.87;100018.22;5030105;28;19925;-58
2023/02/08 10:33:01;;;;;;;;;;;;;;;0.95;48.27;100012.41;5051197;28;19925;-58
2023/02/08 10:35:35;;;;;;;;;;;;;;;0.99;47.52;100011.00;5048960;28;19971;-59
2023/02/08 10:38:18;;;;;;;;;;;;;;;1.04;46.91;100005.06;5028037;28;19934;-58
2023/02/08 10:40:47;;;;;;;;;;;;;;;1.28;47.15;100001.06;5045886;28;19940;-58
2023/02/08 10:43:20;;;;;;;;;;;;;;;1.37;47.20;100001.69;5031087;28;19928;-59
2023/02/08 10:45:51;;;;;;;;;;;;;;;1.43;46.81;99992.88;5055143;28;20574;-58
2023/02/08 10:48:23;;;;;;;;;;;;;;;1.48;46.58;99993.09;5049311;28;19955;-58
2023/02/08 10:50:56;;;;;;;;;;;;;;;1.52;46.26;99994.34;5052306;28;20420;-57
2023/02/08 10:53:26;;;;;;;;;;;;;;;1.53;46.13;99986.09;5048241;28;19925;-58
2023/02/08 10:55:54;;;;;;;;;;;;;;;1.65;46.29;99980.16;5045998;28;19971;-57
2023/02/08 10:58:24;;;;;;;;;;;;;;;1.67;45.33;99975.44;5049874;28;20004;-57
2023/02/08 11:01:16;;;;;;;;;;;;;;;1.75;46.44;99959.16;5045733;28;19924;-57
2023/02/08 11:04:10;;;;;;;;;;;;;;;1.81;45.43;99972.59;5028517;28;20313;-60
2023/02/08 11:06:38;;;;;;;;;;;;;;;1.86;45.38;99969.25;5043599;28;19982;-57
2023/02/08 11:09:13;;;;;;;;;;;;;;;1.85;45.20;99967.63;5055959;28;20329;-57
2023/02/08 11:11:45;;;;;;;;;;;;;;;1.93;45.20;99961.25;5049731;28;19924;-58
2023/02/08 11:14:15;;;;;;;;;;;;;;;1.96;44.27;99963.50;5052160;28;20094;-57
2023/02/08 11:16:48;;;;;;;;;;;;;;;2.00;43.91;99962.91;5026577;28;19928;-59
2023/02/08 11:19:20;;;;;;;;;;;;;;;1.91;44.27;99947.22;5052957;28;19978;-57
2023/02/08 11:21:52;;;;;;;;;;;;;;;1.98;44.15;99950.75;5047406;28;20020;-57
2023/02/08 11:24:26;;;;;;;;;;;;;;;2.07;44.06;99944.94;5049669;28;20293;-57
2023/02/08 11:26:56;;;;;;;;;;;;;;;2.13;43.59;99948.69;5029649;28;19925;-57
2023/02/08 11:29:25;;;;;;;;;;;;;;;2.26;43.51;99942.47;5053000;28;19929;-57
2023/02/08 11:32:01;;;;;;;;;;;;;;;2.00;43.42;99938.78;5051398;28;19925;-57
2023/02/08 11:34:31;;;;;;;;;;;;;;;2.15;43.70;99935.06;5043028;28;19963;-59
2023/02/08 11:36:59;;;;;;;;;;;;;;;2.21;43.50;99935.06;5054766;28;19999;-57
2023/02/08 11:39:31;;;;;;;;;;;;;;;2.34;43.39;99928.84;5048807;28;19932;-57
2023/02/08 11:41:59;;;;;;;;;;;;;;;2.41;42.98;99921.63;5046785;28;19955;-57
2023/02/08 11:44:28;;;;;;;;;;;;;;;2.45;42.52;99920.19;5043117;28;19960;-57
2023/02/08 11:46:57;;;;;;;;;;;;;;;2.51;42.27;99924.72;5058314;28;19980;-57
2023/02/08 11:49:26;;;;;;;;;;;;;;;2.55;42.21;99915.19;5054306;28;20403;-58
2023/02/08 11:51:58;;;;;;;;;;;;;;;2.67;43.03;99917.25;5053741;28;19925;-57
2023/02/08 11:54:39;;;;;;;;;;;;;;;2.72;42.89;99920.94;5034159;28;19968;-58
2023/02/08 11:57:12;;;;;;;;;;;;;;;2.75;42.09;99908.94;5051242;28;20264;-58
2023/02/08 11:59:42;;;;;;;;;;;;;;;2.72;42.36;99912.91;5049192;28;20004;-57
2023/02/08 12:02:37;;;;;;;;;;;;;;;2.60;42.09;99907.34;5052264;28;19929;-57
2023/02/08 12:05:10;;;;;;;;;;;;;;;2.71;42.87;99905.84;5006181;28;19982;-57
2023/02/08 12:07:56;;;;;;;;;;;;;;;2.81;42.56;99897.34;5051565;28;19925;-57
2023/02/08 12:10:41;;;;;;;;;;;;;;;3.05;42.53;99904.72;5038903;28;20392;-60
2023/02/08 12:13:24;;;;;;;;;;;;;;;2.85;42.05;99909.31;5050867;28;19932;-57
2023/02/08 12:15:54;;;;;;;;;;;;;;;2.75;42.31;99882.09;5051859;28;19995;-57
2023/02/08 12:21:43;;;;;;;;;;;;;;;3.04;42.37;99872.72;5043537;28;19928;-57
2023/02/08 12:24:14;;;;;;;;;;;;;;;2.86;42.05;99863.47;5040628;28;19977;-58
2023/02/08 12:26:49;;;;;;;;;;;;;;;2.98;42.13;99858.25;5050452;28;20055;-57
2023/02/08 12:29:23;;;;;;;;;;;;;;;2.97;42.34;99858.47;5046631;28;19972;-57
2023/02/08 12:31:57;;;;;;;;;;;;;;;3.02;42.39;99851.41;5052421;28;19978;-57
2023/02/08 12:34:27;;;;;;;;;;;;;;;2.99;42.03;99840.31;5041105;28;19929;-57
2023/02/08 12:42:32;;;;;;;;;;;;;;;3.17;41.79;99821.59;5045274;28;19925;-57
2023/02/08 12:45:15;;;;;;;;;;;;;;;3.16;41.69;99819.97;5048960;28;20435;-59
2023/02/08 12:47:49;;;;;;;;;;;;;;;3.29;41.17;99816.34;5032565;28;19925;-57
2023/02/08 12:50:55;;;;;;;;;;;;;;;3.34;41.57;99819.22;5048999;28;20301;-58
2023/02/08 12:53:29;;;;;;;;;;;;;;;3.41;40.97;99828.06;5050599;28;19944;-58
2023/02/08 12:55:58;;;;;;;;;;;;;;;3.22;41.44;99812.91;5053662;28;19932;-58
2023/02/08 12:58:27;;;;;;;;;;;;;;;3.34;40.89;99811.97;5059390;28;20015;-58
2023/02/08 13:00:56;;;;;;;;;;;;;;;3.31;40.96;99811.59;5056151;28;19924;-58
2023/02/08 13:03:30;;;;;;;;;;;;;;;3.23;41.11;99801.94;5048278;28;19925;-58
2023/02/08 13:05:59;;;;;;;;;;;;;;;3.38;40.82;99801.63;5054269;28;20332;-57
2023/02/08 13:08:30;;;;;;;;;;;;;;;3.22;40.67;99812.91;5045836;28;19947;-58
2023/02/08 13:10:59;;;;;;;;;;;;;;;3.25;40.99;99799.00;5054114;28;19932;-58
2023/02/08 13:13:44;;;;;;;;;;;;;;;3.42;40.98;99802.84;5029398;28;19925;-57
2023/02/08 13:16:13;;;;;;;;;;;;;;;3.45;40.83;99802.38;5049592;28;19924;-60
2023/02/08 13:18:43;;;;;;;;;;;;;;;3.56;40.57;99796.28;5040033;28;19929;-58
2023/02/08 13:21:12;;;;;;;;;;;;;;;3.61;40.77;99796.47;5047155;28;20019;-58
2023/02/08 13:23:43;;;;;;;;;;;;;;;3.76;40.24;99793.44;5045678;28;19944;-59
2023/02/08 13:26:21;;;;;;;;;;;;;;;3.75;40.18;99796.38;5045492;28;19933;-57
2023/02/08 13:28:51;;;;;;;;;;;;;;;3.78;39.09;99791.38;5046159;28;19925;-57
2023/02/08 13:31:21;;;;;;;;;;;;;;;3.68;38.98;99791.88;5029178;28;20362;-58
2023/02/08 13:33:51;;;;;;;;;;;;;;;3.68;39.15;99786.50;5043356;28;20278;-58